sensor_id;sensor_type;location;lat;lon;timestamp;pressure;altitude;pressure_sealevel;temperature;humidity
60015;BME280;45867;52.480;6.056;2023-03-18T00:01:44;100733.34;;;11.98;100.00
60015;BME280;45867;52.480;6.056;2023-03-18T00:04:11;100737.34;;;11.95;100.00
60015;BME280;45867;52.480;6.056;2023-03-18T00:06:36;100735.00;;;11.89;100.00
60015;BME280;45867;52.480;6.056;2023-03-18T00:09:03;100730.25;;;11.86;100.00
60015;BME280;45867;52.480;6.056;2023-03-18T00:11:28;100733.44;;;11.77;100.00
60015;BME280;45867;52.480;6.056;2023-03-18T00:13:54;100739.88;;;11.71;100.00
60015;BME280;45867;52.480;6.056;2023-03-18T00:16:20;100742.56;;;11.66;100.00
60015;BME280;45867;52.480;6.056;2023-03-18T00:18:47;100747.84;;;11.66;100.00
60015;BME280;45867;52.480;6.056;2023-03-18T00:21:13;100734.66;;;11.51;100.00
60015;BME280;45867;52.480;6.056;2023-03-18T00:23:41;100736.34;;;11.37;100.00
60015;BME280;45867;52.480;6.056;2023-03-18T00:26:06;100726.06;;;11.25;100.00
60015;BME280;45867;52.480;6.056;2023-03-18T00:28:33;100725.06;;;11.10;100.00
60015;BME280;45867;52.480;6.056;2023-03-18T00:31:05;100721.66;;;11.00;100.00
60015;BME280;45867;52.480;6.056;2023-03-18T00:33:34;100728.84;;;10.94;100.00
60015;BME280;45867;52.480;6.056;2023-03-18T00:36:00;100732.56;;;10.88;100.00
60015;BME280;45867;52.480;6.056;2023-03-18T00:38:25;100740.81;;;10.81;100.00
60015;BME280;45867;52.480;6.056;2023-03-18T00:40:51;100733.66;;;10.77;100.00
60015;BME280;45867;52.480;6.056;2023-03-18T00:43:29;100741.34;;;10.78;100.00
60015;BME280;45867;52.480;6.056;2023-03-18T00:45:58;100744.50;;;10.85;100.00
60015;BME280;45867;52.480;6.056;2023-03-18T00:48:24;100745.31;;;10.76;100.00
60015;BME280;45867;52.480;6.056;2023-03-18T00:50:51;100749.03;;;10.75;100.00
60015;BME280;45867;52.480;6.056;2023-03-18T00:53:17;100747.19;;;10.80;100.00
60015;BME280;45867;52.480;6.056;2023-03-18T00:55:43;100745.56;;;10.79;100.00
60015;BME280;45867;52.480;6.056;2023-03-18T00:58:09;100753.03;;;10.67;100.00
60015;BME280;45867;52.480;6.056;2023-03-18T01:00:36;100744.00;;;10.63;100.00
60015;BME280;45867;52.480;6.056;2023-03-18T01:03:02;100748.53;;;10.52;100.00
60015;BME280;45867;52.480;6.056;2023-03-18T01:05:30;100758.09;;;10.48;100.00
60015;BME280;45867;52.480;6.056;2023-03-18T01:07:55;100747.75;;;10.47;100.00
60015;BME280;45867;52.480;6.056;2023-03-18T01:10:21;100763.66;;;10.47;100.00
60015;BME280;45867;52.480;6.056;2023-03-18T01:12:47;100762.31;;;10.39;100.00
60015;BME280;45867;52.480;6.056;2023-03-18T01:15:14;100772.66;;;10.30;100.00
60015;BME280;45867;52.480;6.056;2023-03-18T01:17:41;100773.69;;;10.24;100.00
60015;BME280;45867;52.480;6.056;2023-03-18T01:20:07;100767.84;;;10.17;100.00
60015;BME280;45867;52.480;6.056;2023-03-18T01:22:36;100772.09;;;10.13;100.00
60015;BME280;45867;52.480;6.056;2023-03-18T01:25:03;100777.94;;;10.10;100.00
60015;BME280;45867;52.480;6.056;2023-03-18T01:27:28;100777.13;;;10.04;100.00
60015;BME280;45867;52.480;6.056;2023-03-18T01:29:54;100769.97;;;9.94;100.00
60015;BME280;45867;52.480;6.056;2023-03-18T01:32:19;100781.31;;;9.90;100.00
60015;BME280;45867;52.480;6.056;2023-03-18T01:34:46;100775.22;;;9.84;100.00
60015;BME280;45867;52.480;6.056;2023-03-18T01:37:11;100772.03;;;9.72;100.00
60015;BME280;45867;52.480;6.056;2023-03-18T01:39:36;100766.25;;;9.80;100.00
60015;BME280;45867;52.480;6.056;2023-03-18T01:42:02;100769.69;;;9.86;100.00
60015;BME280;45867;52.480;6.056;2023-03-18T01:44:29;100773.69;;;9.93;100.00
60015;BME280;45867;52.480;6.056;2023-03-18T01:46:55;100770.22;;;9.93;100.00
60015;BME280;45867;52.480;6.056;2023-03-18T01:49:22;100768.63;;;9.92;100.00
60015;BME280;45867;52.480;6.056;2023-03-18T01:52:11;100767.03;;;9.86;100.00
60015;BME280;45867;52.480;6.056;2023-03-18T01:54:43;100767.31;;;9.89;100.00
60015;BME280;45867;52.480;6.056;2023-03-18T01:57:09;100763.31;;;9.87;100.00
60015;BME280;45867;52.480;6.056;2023-03-18T01:59:39;100763.09;;;9.88;100.00
60015;BME280;45867;52.480;6.056;2023-03-18T02:02:08;100768.63;;;9.92;100.00
60015;BME280;45867;52.480;6.056;2023-03-18T02:04:38;100770.50;;;9.96;100.00
60015;BME280;45867;52.480;6.056;2023-03-18T02:07:04;100761.78;;;9.96;100.00
60015;BME280;45867;52.480;6.056;2023-03-18T02:09:32;100773.38;;;9.90;100.00
60015;BME280;45867;52.480;6.056;2023-03-18T02:11:58;100777.38;;;9.92;100.00
60015;BME280;45867;52.480;6.056;2023-03-18T02:14:25;100780.31;;;9.96;100.00
60015;BME280;45867;52.480;6.056;2023-03-18T02:17:10;100779.50;;;9.90;100.00
60015;BME280;45867;52.480;6.056;2023-03-18T02:22:35;100771.78;;;9.84;100.00
60015;BME280;45867;52.480;6.056;2023-03-18T02:28:09;100779.50;;;9.90;100.00
60015;BME280;45867;52.480;6.056;2023-03-18T02:30:43;100778.72;;;10.05;100.00
60015;BME280;45867;52.480;6.056;2023-03-18T02:33:13;100773.94;;;10.02;100.00
60015;BME280;45867;52.480;6.056;2023-03-18T02:35:38;100777.91;;;9.99;100.00
60015;BME280;45867;52.480;6.056;2023-03-18T02:38:06;100778.16;;;9.98;100.00
60015;BME280;45867;52.480;6.056;2023-03-18T02:40:37;100790.88;;;10.01;100.00
60015;BME280;45867;52.480;6.056;2023-03-18T02:43:27;100782.44;;;10.04;100.00
60015;BME280;45867;52.480;6.056;2023-03-18T02:48:23;100791.94;;;10.00;100.00
60015;BME280;45867;52.480;6.056;2023-03-18T02:50:50;100784.50;;;9.92;100.00
60015;BME280;45867;52.480;6.056;2023-03-18T02:53:16;100788.50;;;9.94;100.00
60015;BME280;45867;52.480;6.056;2023-03-18T02:55:41;100791.38;;;9.93;100.00
60015;BME280;45867;52.480;6.056;2023-03-18T02:58:07;100806.22;;;9.94;100.00
60015;BME280;45867;52.480;6.056;2023-03-18T03:00:34;100812.59;;;10.03;100.00
60015;BME280;45867;52.480;6.056;2023-03-18T03:02:59;100806.50;;;10.03;100.00
60015;BME280;45867;52.480;6.056;2023-03-18T03:05:26;100810.47;;;10.00;100.00
60015;BME280;45867;52.480;6.056;2023-03-18T03:07:52;100808.91;;;10.04;100.00
60015;BME280;45867;52.480;6.056;2023-03-18T03:10:17;100809.72;;;10.10;100.00
60015;BME280;45867;52.480;6.056;2023-03-18T03:12:43;100814.47;;;10.08;100.00
60015;BME280;45867;52.480;6.056;2023-03-18T03:15:09;100806.75;;;10.01;100.00
60015;BME280;45867;52.480;6.056;2023-03-18T03:17:35;100808.63;;;10.00;100.00
60015;BME280;45867;52.480;6.056;2023-03-18T03:20:01;100803.31;;;9.95;100.00
60015;BME280;45867;52.480;6.056;2023-03-18T03:22:30;100809.41;;;9.91;100.00
60015;BME280;45867;52.480;6.056;2023-03-18T03:24:55;100801.16;;;9.87;100.00
60015;BME280;45867;52.480;6.056;2023-03-18T03:27:21;100801.69;;;9.84;100.00
60015;BME280;45867;52.480;6.056;2023-03-18T03:29:46;100813.59;;;9.82;100.00
60015;BME280;45867;52.480;6.056;2023-03-18T03:32:12;100808.28;;;9.76;100.00
60015;BME280;45867;52.480;6.056;2023-03-18T03:34:37;100803.28;;;9.75;100.00
60015;BME280;45867;52.480;6.056;2023-03-18T03:37:03;100814.41;;;9.77;100.00
60015;BME280;45867;52.480;6.056;2023-03-18T03:39:28;100812.28;;;9.79;100.00
60015;BME280;45867;52.480;6.056;2023-03-18T03:41:54;100813.38;;;9.88;100.00
60015;BME280;45867;52.480;6.056;2023-03-18T03:44:22;100820.78;;;9.91;100.00
60015;BME280;45867;52.480;6.056;2023-03-18T03:46:48;100820.78;;;9.86;100.00
60015;BME280;45867;52.480;6.056;2023-03-18T03:49:14;100822.91;;;9.94;100.00
60015;BME280;45867;52.480;6.056;2023-03-18T03:51:39;100819.72;;;9.92;100.00
60015;BME280;45867;52.480;6.056;2023-03-18T03:54:04;100817.34;;;9.86;100.00
60015;BME280;45867;52.480;6.056;2023-03-18T03:56:30;100820.25;;;9.94;100.00
60015;BME280;45867;52.480;6.056;2023-03-18T03:58:56;100821.06;;;10.00;100.00
60015;BME280;45867;52.480;6.056;2023-03-18T04:01:22;100825.03;;;9.97;100.00
60015;BME280;45867;52.480;6.056;2023-03-18T04:03:48;100830.59;;;10.06;100.00
60015;BME280;45867;52.480;6.056;2023-03-18T04:06:13;100829.00;;;10.05;100.00
60015;BME280;45867;52.480;6.056;2023-03-18T04:08:39;100828.78;;;10.07;100.00
60015;BME280;45867;52.480;6.056;2023-03-18T04:11:06;100840.66;;;10.14;100.00
60015;BME280;45867;52.480;6.056;2023-03-18T04:13:32;100841.19;;;10.06;100.00
60015;BME280;45867;52.480;6.056;2023-03-18T04:15:58;100845.69;;;10.06;100.00
60015;BME280;45867;52.480;6.056;2023-03-18T04:18:24;100850.75;;;10.07;100.00
60015;BME280;45867;52.480;6.056;2023-03-18T04:20:53;100858.69;;;10.12;100.00
60015;BME280;45867;52.480;6.056;2023-03-18T04:23:18;100847.56;;;10.10;100.00
60015;BME280;45867;52.480;6.056;2023-03-18T04:25:44;100845.69;;;10.00;100.00
60015;BME280;45867;52.480;6.056;2023-03-18T04:28:09;100837.97;;;9.89;100.00
60015;BME280;45867;52.480;6.056;2023-03-18T04:30:35;100838.53;;;9.96;100.00
60015;BME280;45867;52.480;6.056;2023-03-18T04:33:00;100855.75;;;10.04;100.00
60015;BME280;45867;52.480;6.056;2023-03-18T04:35:27;100856.81;;;10.03;100.00
60015;BME280;45867;52.480;6.056;2023-03-18T04:37:53;100862.13;;;10.08;100.00
60015;BME280;45867;52.480;6.056;2023-03-18T04:40:19;100859.47;;;10.08;100.00
60015;BME280;45867;52.480;6.056;2023-03-18T04:42:44;100863.47;;;10.20;100.00
60015;BME280;45867;52.480;6.056;2023-03-18T04:45:12;100862.66;;;10.20;100.00
60015;BME280;45867;52.480;6.056;2023-03-18T04:47:40;100857.09;;;10.16;100.00
60015;BME280;45867;52.480;6.056;2023-03-18T04:50:06;100860.81;;;10.26;100.00
60015;BME280;45867;52.480;6.056;2023-03-18T04:52:35;100864.00;;;10.22;100.00
60015;BME280;45867;52.480;6.056;2023-03-18T04:55:00;100848.63;;;10.19;100.00
60015;BME280;45867;52.480;6.056;2023-03-18T04:57:25;100847.06;;;10.18;100.00
60015;BME280;45867;52.480;6.056;2023-03-18T04:59:51;100858.69;;;10.17;100.00
60015;BME280;45867;52.480;6.056;2023-03-18T05:02:17;100858.16;;;10.15;100.00
60015;BME280;45867;52.480;6.056;2023-03-18T05:04:43;100859.75;;;10.16;100.00
60015;BME280;45867;52.480;6.056;2023-03-18T05:07:11;100855.00;;;10.18;100.00
60015;BME280;45867;52.480;6.056;2023-03-18T05:09:38;100853.13;;;10.14;100.00
60015;BME280;45867;52.480;6.056;2023-03-18T05:12:04;100850.75;;;10.12;100.00
60015;BME280;45867;52.480;6.056;2023-03-18T05:14:30;100859.22;;;10.14;100.00
60015;BME280;45867;52.480;6.056;2023-03-18T05:16:55;100857.63;;;10.08;100.00
60015;BME280;45867;52.480;6.056;2023-03-18T05:19:21;100854.94;;;10.03;100.00
60015;BME280;45867;52.480;6.056;2023-03-18T05:21:48;100860.22;;;9.98;100.00
60015;BME280;45867;52.480;6.056;2023-03-18T05:24:13;100860.50;;;9.91;100.00
60015;BME280;45867;52.480;6.056;2023-03-18T05:26:39;100865.81;;;9.96;100.00
60015;BME280;45867;52.480;6.056;2023-03-18T05:29:05;100862.06;;;9.87;100.00
60015;BME280;45867;52.480;6.056;2023-03-18T05:31:31;100864.69;;;9.77;100.00
60015;BME280;45867;52.480;6.056;2023-03-18T05:33:56;100860.44;;;9.76;100.00
60015;BME280;45867;52.480;6.056;2023-03-18T05:36:22;100874.72;;;9.75;100.00
60015;BME280;45867;52.480;6.056;2023-03-18T05:38:47;100872.03;;;9.65;100.00
60015;BME280;45867;52.480;6.056;2023-03-18T05:41:12;100876.00;;;9.62;100.00
60015;BME280;45867;52.480;6.056;2023-03-18T05:43:38;100866.19;;;9.58;100.00
60015;BME280;45867;52.480;6.056;2023-03-18T05:46:03;100878.09;;;9.60;100.00
60015;BME280;45867;52.480;6.056;2023-03-18T05:48:29;100877.56;;;9.58;100.00
60015;BME280;45867;52.480;6.056;2023-03-18T05:50:56;100882.06;;;9.63;100.00
60015;BME280;45867;52.480;6.056;2023-03-18T05:53:22;100887.63;;;9.61;100.00
60015;BME280;45867;52.480;6.056;2023-03-18T05:55:48;100888.69;;;9.65;100.00
60015;BME280;45867;52.480;6.056;2023-03-18T05:58:13;100904.34;;;9.72;100.00
60015;BME280;45867;52.480;6.056;2023-03-18T06:00:38;100900.66;;;9.73;100.00
60015;BME280;45867;52.480;6.056;2023-03-18T06:03:04;100898.28;;;9.71;100.00
60015;BME280;45867;52.480;6.056;2023-03-18T06:05:30;100906.72;;;9.73;100.00
60015;BME280;45867;52.480;6.056;2023-03-18T06:07:56;100901.97;;;9.75;100.00
60015;BME280;45867;52.480;6.056;2023-03-18T06:10:23;100894.59;;;9.83;100.00
60015;BME280;45867;52.480;6.056;2023-03-18T06:12:49;100901.22;;;9.80;100.00
60015;BME280;45867;52.480;6.056;2023-03-18T06:15:18;100900.41;;;9.74;100.00
60015;BME280;45867;52.480;6.056;2023-03-18T06:17:43;100909.41;;;9.78;100.00
60015;BME280;45867;52.480;6.056;2023-03-18T06:20:09;100919.16;;;9.73;100.00
60015;BME280;45867;52.480;6.056;2023-03-18T06:22:35;100918.63;;;9.71;100.00
60015;BME280;45867;52.480;6.056;2023-03-18T06:25:01;100921.81;;;9.73;100.00
60015;BME280;45867;52.480;6.056;2023-03-18T06:27:28;100939.53;;;9.72;100.00
60015;BME280;45867;52.480;6.056;2023-03-18T06:29:53;100941.63;;;9.65;100.00
60015;BME280;45867;52.480;6.056;2023-03-18T06:32:38;100943.47;;;9.65;100.00
60015;BME280;45867;52.480;6.056;2023-03-18T06:35:05;100945.06;;;9.61;100.00
60015;BME280;45867;52.480;6.056;2023-03-18T06:37:30;100958.53;;;9.59;100.00
60015;BME280;45867;52.480;6.056;2023-03-18T06:39:56;100944.72;;;9.52;100.00
60015;BME280;45867;52.480;6.056;2023-03-18T06:42:22;100938.13;;;9.49;100.00
60015;BME280;45867;52.480;6.056;2023-03-18T06:44:47;100960.66;;;9.62;100.00
60015;BME280;45867;52.480;6.056;2023-03-18T06:47:21;100959.03;;;9.56;100.00
60015;BME280;45867;52.480;6.056;2023-03-18T06:49:47;100974.97;;;9.66;100.00
60015;BME280;45867;52.480;6.056;2023-03-18T06:52:13;100973.94;;;9.72;100.00
60015;BME280;45867;52.480;6.056;2023-03-18T06:54:39;100980.59;;;9.75;100.00
60015;BME280;45867;52.480;6.056;2023-03-18T06:57:06;100975.81;;;9.72;100.00
60015;BME280;45867;52.480;6.056;2023-03-18T06:59:31;100972.88;;;9.73;100.00
60015;BME280;45867;52.480;6.056;2023-03-18T07:01:57;100979.81;;;9.85;100.00
60015;BME280;45867;52.480;6.056;2023-03-18T07:04:24;100977.44;;;9.83;100.00
60015;BME280;45867;52.480;6.056;2023-03-18T07:06:50;100989.63;;;9.84;100.00
60015;BME280;45867;52.480;6.056;2023-03-18T07:09:17;100991.50;;;9.89;100.00
60015;BME280;45867;52.480;6.056;2023-03-18T07:11:43;100992.09;;;9.96;100.00
60015;BME280;45867;52.480;6.056;2023-03-18T07:14:09;101002.16;;;9.99;100.00
60015;BME280;45867;52.480;6.056;2023-03-18T07:16:35;101006.16;;;10.07;100.00
60015;BME280;45867;52.480;6.056;2023-03-18T07:19:01;101003.00;;;10.10;100.00
60015;BME280;45867;52.480;6.056;2023-03-18T07:21:26;101008.31;;;10.15;100.00
60015;BME280;45867;52.480;6.056;2023-03-18T07:23:53;100993.75;;;10.17;100.00
60015;BME280;45867;52.480;6.056;2023-03-18T07:26:19;100997.22;;;10.23;100.00
60015;BME280;45867;52.480;6.056;2023-03-18T07:28:46;100985.63;;;10.29;100.00
60015;BME280;45867;52.480;6.056;2023-03-18T07:31:13;100983.28;;;10.43;100.00
60015;BME280;45867;52.480;6.056;2023-03-18T07:33:39;100990.72;;;10.56;100.00
60015;BME280;45867;52.480;6.056;2023-03-18T07:36:07;100992.88;;;10.70;100.00
60015;BME280;45867;52.480;6.056;2023-03-18T07:38:33;100999.22;;;10.69;100.00
60015;BME280;45867;52.480;6.056;2023-03-18T07:40:59;101001.38;;;10.77;100.00
60015;BME280;45867;52.480;6.056;2023-03-18T07:43:25;101007.25;;;10.94;100.00
60015;BME280;45867;52.480;6.056;2023-03-18T07:45:50;101003.25;;;10.86;100.00
60015;BME280;45867;52.480;6.056;2023-03-18T07:48:15;100996.34;;;10.91;100.00
60015;BME280;45867;52.480;6.056;2023-03-18T07:50:41;101005.09;;;11.06;100.00
60015;BME280;45867;52.480;6.056;2023-03-18T07:53:07;101003.53;;;11.10;100.00
60015;BME280;45867;52.480;6.056;2023-03-18T07:55:33;101002.72;;;11.10;100.00
60015;BME280;45867;52.480;6.056;2023-03-18T07:58:00;101008.28;;;11.24;100.00
60015;BME280;45867;52.480;6.056;2023-03-18T08:00:25;101010.16;;;11.23;100.00
60015;BME280;45867;52.480;6.056;2023-03-18T08:02:51;101008.81;;;11.31;100.00
60015;BME280;45867;52.480;6.056;2023-03-18T08:05:17;101020.19;;;11.67;100.00
60015;BME280;45867;52.480;6.056;2023-03-18T08:07:43;101019.09;;;11.84;100.00
60015;BME280;45867;52.480;6.056;2023-03-18T08:10:09;101002.84;;;12.11;100.00
60015;BME280;45867;52.480;6.056;2023-03-18T08:12:36;100989.06;;;12.58;100.00
60015;BME280;45867;52.480;6.056;2023-03-18T08:15:01;101002.47;;;13.17;100.00
60015;BME280;45867;52.480;6.056;2023-03-18T08:17:26;100994.91;;;13.00;100.00
60015;BME280;45867;52.480;6.056;2023-03-18T08:19:52;101007.50;;;12.84;100.00
60015;BME280;45867;52.480;6.056;2023-03-18T08:22:17;101009.00;;;12.61;100.00
60015;BME280;45867;52.480;6.056;2023-03-18T08:24:43;101014.88;;;12.58;100.00
60015;BME280;45867;52.480;6.056;2023-03-18T08:27:09;101008.84;;;12.37;100.00
60015;BME280;45867;52.480;6.056;2023-03-18T08:29:35;101011.19;;;12.43;100.00
60015;BME280;45867;52.480;6.056;2023-03-18T08:32:19;101017.97;;;12.70;100.00
60015;BME280;45867;52.480;6.056;2023-03-18T08:35:04;101025.16;;;13.09;100.00
60015;BME280;45867;52.480;6.056;2023-03-18T08:37:31;101022.94;;;13.21;100.00
60015;BME280;45867;52.480;6.056;2023-03-18T08:39:56;101023.44;;;13.58;100.00
60015;BME280;45867;52.480;6.056;2023-03-18T08:42:22;101024.13;;;13.39;100.00
60015;BME280;45867;52.480;6.056;2023-03-18T08:44:48;101020.47;;;13.64;100.00
60015;BME280;45867;52.480;6.056;2023-03-18T08:47:13;101025.03;;;14.55;100.00
60015;BME280;45867;52.480;6.056;2023-03-18T08:49:39;101035.59;;;15.96;100.00
60015;BME280;45867;52.480;6.056;2023-03-18T08:52:04;101037.72;;;16.35;100.00
60015;BME280;45867;52.480;6.056;2023-03-18T08:54:30;101040.91;;;16.74;100.00
60015;BME280;45867;52.480;6.056;2023-03-18T08:56:56;101042.41;;;16.66;100.00
60015;BME280;45867;52.480;6.056;2023-03-18T08:59:23;101047.72;;;16.94;100.00
60015;BME280;45867;52.480;6.056;2023-03-18T09:01:49;101057.41;;;15.38;100.00
60015;BME280;45867;52.480;6.056;2023-03-18T09:04:14;101056.16;;;15.16;100.00
60015;BME280;45867;52.480;6.056;2023-03-18T09:06:40;101054.97;;;14.71;100.00
60015;BME280;45867;52.480;6.056;2023-03-18T09:09:06;101054.47;;;14.44;100.00
60015;BME280;45867;52.480;6.056;2023-03-18T09:11:32;101054.97;;;14.71;100.00
60015;BME280;45867;52.480;6.056;2023-03-18T09:13:58;101053.69;;;15.39;100.00
60015;BME280;45867;52.480;6.056;2023-03-18T09:16:24;101060.09;;;16.39;100.00
60015;BME280;45867;52.480;6.056;2023-03-18T09:18:49;101051.06;;;17.44;100.00
60015;BME280;45867;52.480;6.056;2023-03-18T09:21:14;101050.41;;;17.16;100.00
60015;BME280;45867;52.480;6.056;2023-03-18T09:23:42;101062.78;;;16.39;100.00
60015;BME280;45867;52.480;6.056;2023-03-18T09:26:08;101062.03;;;15.65;100.00
60015;BME280;45867;52.480;6.056;2023-03-18T09:28:34;101059.19;;;15.09;100.00
60015;BME280;45867;52.480;6.056;2023-03-18T09:31:16;101068.66;;;14.64;100.00
60015;BME280;45867;52.480;6.056;2023-03-18T09:33:42;101068.25;;;14.52;100.00
60015;BME280;45867;52.480;6.056;2023-03-18T09:36:08;101067.13;;;14.34;100.00
60015;BME280;45867;52.480;6.056;2023-03-18T09:38:34;101070.81;;;14.38;100.00
60015;BME280;45867;52.480;6.056;2023-03-18T09:41:17;101077.91;;;14.24;100.00
60015;BME280;45867;52.480;6.056;2023-03-18T09:49:40;101069.31;;;15.45;100.00
60015;BME280;45867;52.480;6.056;2023-03-18T09:52:34;101072.38;;;15.39;100.00
60015;BME280;45867;52.480;6.056;2023-03-18T09:55:03;101071.59;;;15.00;100.00
60015;BME280;45867;52.480;6.056;2023-03-18T09:57:36;101062.88;;;14.95;100.00
60015;BME280;45867;52.480;6.056;2023-03-18T10:00:32;101082.50;;;14.66;100.00
60015;BME280;45867;52.480;6.056;2023-03-18T10:03:03;101086.00;;;14.37;100.00
60015;BME280;45867;52.480;6.056;2023-03-18T10:08:12;101075.00;;;14.87;100.00
60015;BME280;45867;52.480;6.056;2023-03-18T10:10:44;101071.44;;;14.54;100.00
60015;BME280;45867;52.480;6.056;2023-03-18T10:13:20;101094.59;;;15.34;100.00
60015;BME280;45867;52.480;6.056;2023-03-18T10:15:53;101085.53;;;16.64;100.00
60015;BME280;45867;52.480;6.056;2023-03-18T10:18:30;101086.72;;;16.58;100.00
60015;BME280;45867;52.480;6.056;2023-03-18T10:23:45;101090.81;;;17.06;100.00
60015;BME280;45867;52.480;6.056;2023-03-18T10:26:28;101092.59;;;18.27;100.00
60015;BME280;45867;52.480;6.056;2023-03-18T10:32:22;101102.59;;;18.44;100.00
60015;BME280;45867;52.480;6.056;2023-03-18T10:37:57;101103.69;;;17.94;100.00
60015;BME280;45867;52.480;6.056;2023-03-18T10:40:31;101106.94;;;19.14;100.00
60015;BME280;45867;52.480;6.056;2023-03-18T10:42:59;101097.75;;;19.67;100.00
60015;BME280;45867;52.480;6.056;2023-03-18T10:45:27;101102.81;;;20.37;100.00
60015;BME280;45867;52.480;6.056;2023-03-18T10:50:38;101100.72;;;22.05;96.77
60015;BME280;45867;52.480;6.056;2023-03-18T10:53:21;101099.47;;;22.39;94.86
60015;BME280;45867;52.480;6.056;2023-03-18T10:56:07;101103.28;;;23.32;88.75
60015;BME280;45867;52.480;6.056;2023-03-18T10:58:33;101093.03;;;23.69;81.32
60015;BME280;45867;52.480;6.056;2023-03-18T11:00:59;101102.75;;;23.26;80.94
60015;BME280;45867;52.480;6.056;2023-03-18T11:03:26;101099.50;;;23.64;78.26
60015;BME280;45867;52.480;6.056;2023-03-18T11:05:53;101090.66;;;24.31;72.24
60015;BME280;45867;52.480;6.056;2023-03-18T11:08:30;101087.81;;;24.59;72.44
60015;BME280;45867;52.480;6.056;2023-03-18T11:11:27;101088.50;;;25.14;74.68
60015;BME280;45867;52.480;6.056;2023-03-18T11:13:55;101082.25;;;25.10;71.44
60015;BME280;45867;52.480;6.056;2023-03-18T11:16:41;101083.31;;;24.47;72.91
60015;BME280;45867;52.480;6.056;2023-03-18T11:19:38;101074.91;;;24.01;71.42
60015;BME280;45867;52.480;6.056;2023-03-18T11:24:41;101076.50;;;23.26;79.15
60015;BME280;45867;52.480;6.056;2023-03-18T11:29:42;101069.06;;;20.39;97.32
60015;BME280;45867;52.480;6.056;2023-03-18T11:32:26;101072.44;;;19.60;100.00
60015;BME280;45867;52.480;6.056;2023-03-18T11:34:56;101069.47;;;19.18;100.00
60015;BME280;45867;52.480;6.056;2023-03-18T11:37:33;101069.97;;;18.85;100.00
60015;BME280;45867;52.480;6.056;2023-03-18T11:42:41;101069.47;;;18.00;100.00
60015;BME280;45867;52.480;6.056;2023-03-18T11:47:53;101054.38;;;18.12;100.00
60015;BME280;45867;52.480;6.056;2023-03-18T11:50:21;101061.19;;;18.36;100.00
60015;BME280;45867;52.480;6.056;2023-03-18T11:56:15;101066.31;;;17.66;100.00
60015;BME280;45867;52.480;6.056;2023-03-18T11:58:58;101065.56;;;17.43;100.00
60015;BME280;45867;52.480;6.056;2023-03-18T12:04:42;101066.09;;;17.85;100.00
60015;BME280;45867;52.480;6.056;2023-03-18T12:07:22;101062.56;;;17.45;100.00
60015;BME280;45867;52.480;6.056;2023-03-18T12:15:37;101057.97;;;16.64;100.00
60015;BME280;45867;52.480;6.056;2023-03-18T12:21:06;101052.88;;;17.13;100.00
60015;BME280;45867;52.480;6.056;2023-03-18T12:24:03;101053.69;;;17.36;100.00
60015;BME280;45867;52.480;6.056;2023-03-18T12:29:33;101056.91;;;18.09;100.00
60015;BME280;45867;52.480;6.056;2023-03-18T12:32:18;101065.97;;;17.37;100.00
60015;BME280;45867;52.480;6.056;2023-03-18T12:35:20;101050.28;;;17.44;100.00
60015;BME280;45867;52.480;6.056;2023-03-18T12:41:02;101046.06;;;17.51;100.00
60015;BME280;45867;52.480;6.056;2023-03-18T12:46:51;101045.34;;;16.92;100.00
60015;BME280;45867;52.480;6.056;2023-03-18T12:52:07;101043.50;;;16.79;100.00
60015;BME280;45867;52.480;6.056;2023-03-18T12:54:47;101049.88;;;17.05;100.00
60015;BME280;45867;52.480;6.056;2023-03-18T12:57:40;101042.84;;;17.18;100.00
60015;BME280;45867;52.480;6.056;2023-03-18T13:00:23;101030.56;;;16.95;100.00
60015;BME280;45867;52.480;6.056;2023-03-18T13:08:40;101025.44;;;16.84;100.00
60015;BME280;45867;52.480;6.056;2023-03-18T13:11:19;101025.88;;;16.78;100.00
60015;BME280;45867;52.480;6.056;2023-03-18T13:13:53;101030.94;;;16.65;100.00
60015;BME280;45867;52.480;6.056;2023-03-18T13:16:21;101026.53;;;16.33;100.00
60015;BME280;45867;52.480;6.056;2023-03-18T13:18:51;101023.56;;;16.35;100.00
60015;BME280;45867;52.480;6.056;2023-03-18T13:21:21;101026.47;;;15.97;100.00
60015;BME280;45867;52.480;6.056;2023-03-18T13:29:47;101036.97;;;15.93;100.00
60015;BME280;45867;52.480;6.056;2023-03-18T13:32:29;101033.09;;;15.72;100.00
60015;BME280;45867;52.480;6.056;2023-03-18T13:35:24;101043.34;;;15.65;100.00
60015;BME280;45867;52.480;6.056;2023-03-18T13:43:13;101033.38;;;15.70;100.00
60015;BME280;45867;52.480;6.056;2023-03-18T13:45:45;101024.06;;;15.82;100.00
60015;BME280;45867;52.480;6.056;2023-03-18T13:48:26;101026.75;;;15.95;100.00
60015;BME280;45867;52.480;6.056;2023-03-18T13:50:56;101030.72;;;15.98;100.00
60015;BME280;45867;52.480;6.056;2023-03-18T14:12:11;101026.44;;;16.25;100.00
60015;BME280;45867;52.480;6.056;2023-03-18T14:14:54;101024.19;;;16.04;100.00
60015;BME280;45867;52.480;6.056;2023-03-18T14:20:15;101012.50;;;15.72;100.00
60015;BME280;45867;52.480;6.056;2023-03-18T14:22:48;101017.31;;;15.57;100.00
60015;BME280;45867;52.480;6.056;2023-03-18T14:27:51;101031.19;;;15.26;100.00
60015;BME280;45867;52.480;6.056;2023-03-18T14:36:03;101034.25;;;15.00;100.00
60015;BME280;45867;52.480;6.056;2023-03-18T14:38:34;101041.41;;;14.43;100.00
60015;BME280;45867;52.480;6.056;2023-03-18T14:41:03;101046.22;;;13.98;100.00
60015;BME280;45867;52.480;6.056;2023-03-18T14:43:39;101048.72;;;13.60;100.00
60015;BME280;45867;52.480;6.056;2023-03-18T14:46:14;101045.09;;;13.11;100.00